Time;durP1;ratioP1;P1;durP2;ratioP2;P2;SDS_P1;SDS_P2;PMS_P1;PMS_P2;Temp;Humidity;BMP_temperature;BMP_pressure;BME280_temperature;BME280_humidity;BME280_pressure;Samples;Min_cycle;Max_cycle;Signal;HPM_P1;HPM_P2
2021/05/25 04:01:17;;;;;;;3.25;3.05;;;11.40;99.90;;;;;;5560571;23;20271;-70
2021/05/25 04:03:44;;;;;;;3.15;2.92;;;11.40;99.90;;;;;;4935804;29;20226;-71
2021/05/25 04:06:10;;;;;;;2.80;2.80;;;11.40;99.90;;;;;;4936545;28;20670;-69
2021/05/25 04:08:36;;;;;;;2.78;2.72;;;11.40;99.90;;;;;;4937440;29;20213;-70
2021/05/25 04:11:02;;;;;;;3.25;3.15;;;11.40;99.90;;;;;;4934085;29;20222;-68
2021/05/25 04:13:29;;;;;;;3.53;3.42;;;11.40;99.90;;;;;;4926866;29;20206;-68
2021/05/25 04:15:55;;;;;;;3.50;3.40;;;11.30;99.90;;;;;;4924118;29;20543;-68
2021/05/25 04:18:22;;;;;;;3.50;3.30;;;11.30;99.90;;;;;;4917643;29;20262;-70
2021/05/25 04:20:49;;;;;;;3.10;2.97;;;11.40;99.90;;;;;;4926448;29;20229;-68
2021/05/25 04:23:16;;;;;;;4.43;4.03;;;11.30;99.90;;;;;;4924395;29;20589;-68
2021/05/25 04:25:42;;;;;;;3.10;3.00;;;11.30;99.90;;;;;;4900906;29;20648;-69
2021/05/25 04:28:09;;;;;;;3.00;2.83;;;11.30;99.90;;;;;;4926850;29;20225;-70
2021/05/25 04:30:35;;;;;;;4.00;3.70;;;11.30;99.90;;;;;;4923420;29;20605;-70
2021/05/25 04:33:02;;;;;;;3.75;3.65;;;11.30;99.90;;;;;;4928889;29;20195;-69
2021/05/25 04:35:29;;;;;;;3.45;3.35;;;11.30;99.90;;;;;;4924398;29;20587;-69
2021/05/25 04:37:57;;;;;;;4.35;3.95;;;11.30;99.90;;;;;;4917468;29;20214;-68
2021/05/25 04:40:24;;;;;;;3.00;2.95;;;11.30;99.90;;;;;;4933119;29;20202;-68
2021/05/25 04:42:51;;;;;;;3.25;3.25;;;11.30;99.90;;;;;;4921046;29;20214;-67
2021/05/25 04:45:17;;;;;;;2.92;2.78;;;11.30;99.90;;;;;;4910532;29;20565;-68
2021/05/25 04:47:43;;;;;;;3.70;3.60;;;11.40;99.90;;;;;;4932902;29;20647;-68
2021/05/25 04:50:11;;;;;;;3.95;3.85;;;11.40;99.90;;;;;;4927607;29;20312;-68
2021/05/25 04:52:39;;;;;;;3.75;3.55;;;11.50;99.90;;;;;;4922572;29;20570;-68
2021/05/25 04:55:08;;;;;;;3.17;3.08;;;11.50;99.90;;;;;;4917190;29;20659;-68
2021/05/25 04:57:34;;;;;;;3.40;3.30;;;11.50;99.90;;;;;;4917940;29;20763;-68
2021/05/25 05:00:01;;;;;;;2.92;2.83;;;11.50;99.90;;;;;;4918342;29;20270;-68
2021/05/25 05:02:27;;;;;;;2.90;2.80;;;11.50;99.90;;;;;;4922537;29;20241;-68
2021/05/25 05:04:53;;;;;;;3.00;3.00;;;11.50;99.90;;;;;;4931878;29;20203;-68
2021/05/25 05:07:20;;;;;;;3.90;3.60;;;11.50;99.90;;;;;;4917108;29;20202;-69
2021/05/25 05:09:47;;;;;;;2.60;2.50;;;11.60;99.90;;;;;;4932383;29;20601;-69
2021/05/25 05:12:13;;;;;;;6.72;3.17;;;11.60;99.90;;;;;;4921749;29;20222;-68
2021/05/25 05:14:39;;;;;;;2.45;2.40;;;11.90;99.90;;;;;;4931296;29;20213;-68
2021/05/25 05:17:06;;;;;;;2.50;2.50;;;12.20;99.90;;;;;;4916638;29;20210;-68
2021/05/25 05:19:32;;;;;;;1.95;1.95;;;12.40;99.90;;;;;;4917824;29;20270;-69
2021/05/25 05:21:58;;;;;;;2.35;2.25;;;12.50;99.90;;;;;;4921684;29;20222;-70
2021/05/25 05:24:24;;;;;;;2.55;2.45;;;12.50;99.90;;;;;;4916145;29;20242;-69
2021/05/25 05:26:52;;;;;;;1.88;1.88;;;12.30;99.90;;;;;;4917027;29;20546;-69
2021/05/25 05:29:18;;;;;;;2.20;2.20;;;12.20;99.90;;;;;;4913777;29;20214;-69
2021/05/25 05:31:45;;;;;;;2.10;2.00;;;12.10;99.90;;;;;;4915410;29;20230;-70
2021/05/25 05:34:11;;;;;;;1.70;1.70;;;12.00;99.90;;;;;;4915323;29;20222;-70
2021/05/25 05:36:37;;;;;;;1.80;1.80;;;12.30;99.90;;;;;;4920041;29;20311;-70
2021/05/25 05:39:05;;;;;;;8.87;1.70;;;13.00;99.90;;;;;;4916895;29;20215;-70
2021/05/25 05:41:31;;;;;;;1.30;1.30;;;13.80;99.90;;;;;;4921683;29;20493;-68
2021/05/25 05:43:58;;;;;;;1.40;1.40;;;14.50;99.90;;;;;;4916192;29;20547;-68
2021/05/25 05:46:25;;;;;;;1.10;1.10;;;15.10;99.90;;;;;;4916062;29;20478;-68
2021/05/25 05:48:51;;;;;;;1.20;1.20;;;15.50;99.90;;;;;;4923831;29;20495;-68
2021/05/25 05:51:18;;;;;;;2.30;1.23;;;16.00;99.90;;;;;;4917048;29;20490;-68
2021/05/25 05:53:44;;;;;;;1.23;1.20;;;16.30;99.90;;;;;;4916418;29;20492;-69
2021/05/25 05:56:11;;;;;;;1.43;1.43;;;16.30;99.90;;;;;;4918516;29;20459;-71
2021/05/25 05:58:37;;;;;;;1.17;1.17;;;15.70;99.90;;;;;;4915945;29;20458;-69
2021/05/25 06:01:04;;;;;;;1.10;1.10;;;15.70;99.90;;;;;;4914817;29;20495;-68
2021/05/25 06:03:30;;;;;;;1.30;1.30;;;15.60;99.90;;;;;;4916382;29;20490;-69
2021/05/25 06:05:56;;;;;;;1.43;1.43;;;15.10;99.90;;;;;;4926041;29;20465;-69
2021/05/25 06:08:22;;;;;;;1.70;1.70;;;14.80;99.90;;;;;;4916672;29;20745;-69
2021/05/25 06:10:51;;;;;;;1.90;1.90;;;14.30;99.90;;;;;;4919358;29;20486;-68
2021/05/25 06:13:19;;;;;;;2.10;2.10;;;13.90;99.90;;;;;;4915529;29;20974;-69
2021/05/25 06:15:45;;;;;;;2.50;2.40;;;13.70;99.90;;;;;;4924182;29;20880;-68
2021/05/25 06:18:12;;;;;;;2.37;2.37;;;13.60;99.90;;;;;;4916268;29;20534;-69
2021/05/25 06:20:39;;;;;;;2.40;2.30;;;13.50;99.90;;;;;;4916580;29;20794;-68
2021/05/25 06:23:05;;;;;;;2.77;2.77;;;13.40;99.90;;;;;;4917197;29;20490;-69
2021/05/25 06:25:31;;;;;;;2.70;2.70;;;13.80;99.90;;;;;;4918886;29;20770;-68
2021/05/25 06:27:57;;;;;;;2.40;2.40;;;14.50;99.90;;;;;;4919930;29;20502;-67
2021/05/25 06:30:24;;;;;;;2.57;2.57;;;15.10;99.90;;;;;;4919074;29;20462;-67
2021/05/25 06:32:50;;;;;;;2.20;2.20;;;15.40;99.90;;;;;;4919691;29;20465;-68
2021/05/25 06:35:18;;;;;;;1.97;1.97;;;15.70;99.90;;;;;;4919942;29;20835;-68
2021/05/25 06:37:44;;;;;;;2.10;2.10;;;15.80;99.90;;;;;;4923138;29;20482;-67
2021/05/25 06:40:12;;;;;;;2.10;2.10;;;15.80;99.90;;;;;;4924917;29;20870;-67
2021/05/25 06:42:38;;;;;;;2.10;2.10;;;15.50;99.90;;;;;;4918385;29;20508;-68
2021/05/25 06:45:06;;;;;;;2.07;2.07;;;15.30;99.90;;;;;;4918994;29;20459;-68
2021/05/25 06:47:32;;;;;;;2.67;2.57;;;15.10;99.90;;;;;;4918754;29;20985;-68
2021/05/25 06:49:58;;;;;;;2.13;2.10;;;15.60;99.90;;;;;;4930524;29;20997;-65
2021/05/25 06:52:25;;;;;;;2.40;2.40;;;15.90;99.90;;;;;;4933473;29;20486;-65
2021/05/25 06:54:51;;;;;;;2.33;2.33;;;16.00;99.90;;;;;;4927287;29;20463;-65
2021/05/25 06:57:17;;;;;;;2.57;2.47;;;15.70;99.90;;;;;;4919019;29;20752;-66
2021/05/25 06:59:43;;;;;;;2.40;2.30;;;15.50;99.90;;;;;;4922291;29;20466;-66
2021/05/25 07:02:10;;;;;;;2.80;2.80;;;15.50;99.90;;;;;;4918260;29;20486;-64
2021/05/25 07:04:36;;;;;;;2.40;2.40;;;15.30;99.90;;;;;;4919229;29;20479;-65
2021/05/25 07:07:02;;;;;;;3.13;3.03;;;15.40;99.90;;;;;;4919149;29;20458;-66
2021/05/25 07:09:29;;;;;;;2.10;2.10;;;16.00;99.90;;;;;;4925652;29;20775;-65
2021/05/25 07:11:55;;;;;;;2.13;2.13;;;16.40;99.90;;;;;;4918517;29;20490;-65
2021/05/25 07:14:21;;;;;;;2.17;2.07;;;16.40;99.90;;;;;;4918907;29;20815;-65
2021/05/25 07:16:48;;;;;;;2.47;2.37;;;16.50;99.90;;;;;;4919069;29;20462;-65
2021/05/25 07:19:14;;;;;;;2.43;2.40;;;17.00;99.90;;;;;;4918274;29;20899;-65
2021/05/25 07:21:40;;;;;;;2.07;1.90;;;17.70;99.90;;;;;;4922358;29;20485;-65
2021/05/25 07:24:07;;;;;;;2.10;2.03;;;18.40;99.90;;;;;;4937516;29;20501;-65
2021/05/25 07:26:34;;;;;;;2.27;2.17;;;18.60;99.90;;;;;;4937799;29;20473;-65
2021/05/25 07:29:00;;;;;;;2.20;2.13;;;18.70;99.90;;;;;;4920676;29;20482;-65
2021/05/25 07:31:26;;;;;;;2.30;2.10;;;19.30;99.90;;;;;;4918324;29;20522;-63
2021/05/25 07:33:53;;;;;;;2.20;2.10;;;19.70;99.90;;;;;;4918652;29;20463;-64
2021/05/25 07:36:19;;;;;;;1.83;1.83;;;19.50;99.90;;;;;;4919435;29;20477;-63
2021/05/25 07:38:46;;;;;;;2.50;2.40;;;19.50;99.90;;;;;;4917773;29;20546;-63
2021/05/25 07:41:12;;;;;;;2.80;2.80;;;18.90;99.90;;;;;;4919449;29;20666;-64
2021/05/25 07:43:39;;;;;;;3.07;3.03;;;18.10;99.90;;;;;;4920245;29;20490;-64
2021/05/25 07:46:06;;;;;;;3.00;3.00;;;17.30;99.90;;;;;;4935962;29;20479;-63
2021/05/25 07:48:32;;;;;;;3.83;3.60;;;16.70;99.90;;;;;;4918206;29;20470;-65
2021/05/25 07:50:58;;;;;;;3.53;3.37;;;16.20;99.90;;;;;;4921289;29;21029;-65
2021/05/25 07:53:24;;;;;;;3.30;3.20;;;15.80;99.90;;;;;;4931532;29;20458;-64
2021/05/25 07:55:50;;;;;;;3.77;3.57;;;15.60;99.90;;;;;;4931846;29;20514;-64
2021/05/25 07:58:17;;;;;;;3.07;3.00;;;15.60;99.90;;;;;;4931697;29;20473;-64
2021/05/25 08:00:44;;;;;;;3.90;3.60;;;16.10;99.90;;;;;;4929587;29;20500;-65
2021/05/25 08:03:11;;;;;;;3.17;3.07;;;16.30;99.90;;;;;;4936965;29;20593;-66
2021/05/25 08:05:38;;;;;;;3.13;3.10;;;16.20;99.90;;;;;;4926017;29;20586;-65
2021/05/25 08:08:07;;;;;;;3.27;3.17;;;16.00;99.90;;;;;;4918702;29;20633;-69
2021/05/25 08:10:34;;;;;;;2.97;2.90;;;16.10;99.90;;;;;;4927019;29;20568;-65
2021/05/25 08:13:00;;;;;;;2.97;2.83;;;16.40;99.90;;;;;;4922113;29;20564;-66
2021/05/25 08:15:28;;;;;;;2.30;2.10;;;17.10;99.90;;;;;;4922918;29;20466;-68
2021/05/25 08:18:04;;;;;;;2.60;2.50;;;17.60;99.90;;;;;;4920322;29;21054;-69
2021/05/25 08:20:30;;;;;;;2.47;2.27;;;17.30;99.90;;;;;;4923567;29;20486;-69
2021/05/25 08:22:58;;;;;;;3.00;2.90;;;16.60;99.90;;;;;;4926755;29;20578;-69
2021/05/25 08:25:28;;;;;;;2.73;2.73;;;16.00;99.90;;;;;;4927161;29;20471;-68
2021/05/25 08:27:54;;;;;;;3.10;2.90;;;15.50;99.90;;;;;;4926584;29;20474;-68
2021/05/25 08:30:22;;;;;;;2.77;2.63;;;15.10;99.90;;;;;;4928274;29;20506;-68
2021/05/25 08:32:50;;;;;;;2.90;2.90;;;15.60;99.90;;;;;;4928593;29;20469;-68
2021/05/25 08:35:18;;;;;;;2.57;2.13;;;16.10;99.90;;;;;;4929067;29;20476;-68
2021/05/25 08:37:48;;;;;;;2.20;2.10;;;16.70;99.90;;;;;;4928971;29;20522;-68
2021/05/25 08:40:17;;;;;;;1.90;1.90;;;16.50;99.90;;;;;;4929538;29;20481;-68
2021/05/25 08:42:43;;;;;;;2.53;2.53;;;16.10;99.90;;;;;;4928381;29;20486;-69
2021/05/25 08:45:11;;;;;;;2.57;2.47;;;15.80;99.90;;;;;;4928813;29;20466;-67
2021/05/25 08:47:37;;;;;;;2.20;2.10;;;15.50;99.90;;;;;;4924409;29;20558;-68
2021/05/25 08:50:05;;;;;;;2.47;2.30;;;15.20;99.90;;;;;;4917855;29;20470;-67
2021/05/25 08:52:32;;;;;;;2.23;2.23;;;15.00;99.90;;;;;;4917632;29;20986;-67
2021/05/25 08:54:59;;;;;;;3.40;3.20;;;14.70;99.90;;;;;;4917620;29;20474;-67
2021/05/25 08:57:25;;;;;;;2.50;2.30;;;14.50;99.90;;;;;;4917965;29;20470;-67
2021/05/25 08:59:51;;;;;;;2.47;2.37;;;14.50;99.90;;;;;;4917182;29;20785;-67
2021/05/25 09:02:18;;;;;;;3.63;3.43;;;14.40;99.90;;;;;;4916863;29;20495;-67
2021/05/25 09:04:58;;;;;;;2.97;2.87;;;14.10;99.90;;;;;;4917309;29;20970;-67
2021/05/25 09:07:40;;;;;;;2.72;2.70;;;13.80;99.90;;;;;;4917381;29;20475;-68
2021/05/25 09:10:09;;;;;;;2.75;2.75;;;13.50;99.90;;;;;;4916866;29;20217;-68
2021/05/25 09:12:46;;;;;;;3.78;3.58;;;13.30;99.90;;;;;;5130518;27;20542;-68
2021/05/25 09:15:15;;;;;;;3.35;3.35;;;13.20;99.90;;;;;;5130385;28;20211;-67
2021/05/25 09:17:41;;;;;;;3.97;3.70;;;13.10;99.90;;;;;;5130083;27;20207;-68
2021/05/25 09:20:10;;;;;;;4.43;4.22;;;13.10;99.90;;;;;;5130509;28;20203;-68
2021/05/25 09:22:39;;;;;;;4.38;4.10;;;13.30;99.90;;;;;;5130125;27;20517;-68
2021/05/25 09:25:09;;;;;;;5.05;4.85;;;13.50;99.90;;;;;;5130426;27;20207;-68
2021/05/25 09:27:38;;;;;;;5.20;4.90;;;13.70;99.90;;;;;;5130133;27;20623;-67
2021/05/25 09:30:14;;;;;;;3.88;3.75;;;13.80;99.90;;;;;;5129970;27;20211;-67
2021/05/25 09:32:47;;;;;;;4.40;4.20;;;14.00;99.90;;;;;;5129573;27;20206;-67
2021/05/25 09:35:14;;;;;;;3.45;3.35;;;14.10;99.90;;;;;;5130111;27;20279;-67
2021/05/25 09:37:45;;;;;;;4.10;3.75;;;14.30;99.90;;;;;;5129878;27;20206;-67
2021/05/25 09:40:12;;;;;;;3.20;2.90;;;14.40;99.90;;;;;;5130002;27;20567;-67
2021/05/25 09:42:38;;;;;;;3.25;3.15;;;14.60;99.90;;;;;;5129729;27;20222;-67
2021/05/25 09:45:09;;;;;;;3.75;2.58;;;14.40;99.90;;;;;;5129377;27;20207;-67
2021/05/25 09:47:37;;;;;;;3.25;2.70;;;14.30;99.90;;;;;;5129591;27;20204;-67
2021/05/25 09:50:05;;;;;;;2.87;2.77;;;14.20;99.90;;;;;;5130003;27;20211;-67
2021/05/25 09:52:32;;;;;;;2.83;2.83;;;14.20;99.90;;;;;;5131072;27;20492;-67
2021/05/25 09:55:09;;;;;;;3.60;3.40;;;14.20;99.90;;;;;;5131295;27;20456;-67
2021/05/25 09:57:49;;;;;;;2.80;2.70;;;14.40;99.90;;;;;;5131342;27;20936;-68
2021/05/25 10:00:33;;;;;;;2.23;2.13;;;14.50;99.90;;;;;;5129192;27;20770;-67
2021/05/25 10:03:16;;;;;;;2.30;2.20;;;14.80;99.90;;;;;;5129318;27;20839;-67
2021/05/25 10:05:44;;;;;;;2.47;2.37;;;14.80;99.90;;;;;;5129622;27;20812;-68
2021/05/25 10:08:12;;;;;;;2.30;2.30;;;14.90;99.90;;;;;;5129634;27;20461;-67
2021/05/25 10:10:39;;;;;;;2.90;2.70;;;15.00;99.90;;;;;;5128844;27;20496;-67
2021/05/25 10:13:05;;;;;;;2.67;2.50;;;15.10;99.90;;;;;;5129150;27;20510;-67
2021/05/25 10:15:31;;;;;;;3.00;2.43;;;15.10;99.90;;;;;;5128455;27;20804;-67
2021/05/25 10:20:49;;;;;;;2.90;2.80;;;15.00;99.90;;;;;;5128911;27;20647;-68
2021/05/25 10:23:16;;;;;;;3.40;3.40;;;14.90;99.90;;;;;;5119767;27;20461;-67
2021/05/25 10:25:44;;;;;;;3.60;3.50;;;14.60;99.90;;;;;;5115246;28;20453;-68
2021/05/25 10:28:12;;;;;;;4.00;3.80;;;14.50;99.90;;;;;;5115525;28;20568;-69
2021/05/25 10:30:44;;;;;;;5.13;4.83;;;14.30;99.90;;;;;;5114042;28;20984;-69
2021/05/25 10:33:25;;;;;;;3.97;3.67;;;14.20;99.90;;;;;;5115086;28;20867;-69
2021/05/25 10:36:04;;;;;;;4.22;4.13;;;14.20;99.90;;;;;;5115237;28;20457;-68
2021/05/25 10:38:32;;;;;;;3.00;3.00;;;14.20;99.90;;;;;;5115624;28;20566;-69
2021/05/25 10:41:01;;;;;;;3.78;3.60;;;14.20;99.90;;;;;;5114956;28;20481;-69
2021/05/25 10:43:43;;;;;;;3.40;3.33;;;14.10;99.90;;;;;;5115406;28;20207;-69
2021/05/25 10:46:22;;;;;;;3.40;3.30;;;14.10;99.90;;;;;;5114418;28;20211;-69
2021/05/25 10:49:11;;;;;;;2.87;2.77;;;14.20;99.90;;;;;;5115010;28;20204;-69
2021/05/25 10:52:16;;;;;;;2.33;2.33;;;14.30;99.90;;;;;;5115190;28;20496;-69
2021/05/25 10:54:53;;;;;;;1.83;1.83;;;14.50;99.90;;;;;;5114926;28;20536;-68
2021/05/25 10:57:54;;;;;;;3.60;1.60;;;14.50;99.90;;;;;;5114938;28;20536;-68
2021/05/25 11:00:30;;;;;;;1.67;1.63;;;14.70;99.90;;;;;;5114121;28;20453;-68
2021/05/25 11:02:58;;;;;;;1.80;1.80;;;14.80;99.90;;;;;;5114525;28;20456;-68
2021/05/25 11:05:54;;;;;;;2.03;1.93;;;15.10;99.90;;;;;;5114298;28;20929;-68
2021/05/25 11:08:42;;;;;;;3.97;3.17;;;15.20;99.90;;;;;;5114868;28;20453;-70
2021/05/25 11:11:28;;;;;;;2.90;2.80;;;15.30;99.90;;;;;;5114039;28;20490;-68
2021/05/25 11:13:55;;;;;;;2.40;2.40;;;15.30;99.90;;;;;;5114452;28;20827;-69
2021/05/25 11:16:35;;;;;;;2.30;2.20;;;15.20;99.90;;;;;;5113832;28;20473;-68
2021/05/25 11:19:43;;;;;;;2.30;2.30;;;15.20;99.90;;;;;;5114651;28;20468;-68
2021/05/25 11:22:23;;;;;;;3.10;3.00;;;15.30;99.90;;;;;;5051319;28;20468;-69
2021/05/25 11:25:05;;;;;;;2.00;2.00;;;15.40;99.90;;;;;;5110474;28;20493;-68
2021/05/25 11:27:35;;;;;;;2.40;2.37;;;15.70;99.90;;;;;;5114331;28;20461;-68
2021/05/25 11:30:07;;;;;;;2.33;2.20;;;15.70;99.90;;;;;;5113779;27;20468;-70
2021/05/25 11:32:38;;;;;;;2.40;2.30;;;15.80;99.90;;;;;;5113305;28;20481;-69
2021/05/25 11:35:07;;;;;;;2.53;2.30;;;15.90;99.90;;;;;;5113088;28;20567;-70
2021/05/25 11:37:36;;;;;;;2.30;2.20;;;16.30;99.90;;;;;;5114184;27;20518;-69
2021/05/25 11:40:06;;;;;;;2.13;2.03;;;16.50;99.90;;;;;;5114163;28;20827;-70
2021/05/25 11:42:33;;;;;;;2.03;2.03;;;16.40;99.90;;;;;;5113753;28;20477;-69
2021/05/25 11:45:00;;;;;;;2.50;2.40;;;16.40;99.90;;;;;;5113387;28;20522;-70
2021/05/25 11:47:26;;;;;;;2.27;2.20;;;16.50;99.90;;;;;;5113413;28;20480;-69
2021/05/25 11:49:53;;;;;;;2.00;2.00;;;16.70;99.90;;;;;;5114113;28;20449;-70
2021/05/25 11:52:25;;;;;;;1.90;1.80;;;16.90;99.90;;;;;;5113526;28;20493;-69
2021/05/25 11:54:53;;;;;;;2.17;2.17;;;16.80;99.90;;;;;;5113706;27;20482;-68
2021/05/25 11:57:31;;;;;;;2.80;2.67;;;16.70;99.90;;;;;;5113557;28;20453;-69
2021/05/25 12:00:00;;;;;;;2.80;2.70;;;16.50;99.90;;;;;;5113479;28;20820;-68
2021/05/25 12:02:27;;;;;;;2.57;2.57;;;16.30;99.90;;;;;;5112879;28;20478;-68
2021/05/25 12:05:12;;;;;;;2.23;2.23;;;16.10;99.90;;;;;;5113583;28;20469;-68
2021/05/25 12:07:40;;;;;;;2.57;2.47;;;16.30;99.90;;;;;;5113454;28;20821;-68
2021/05/25 12:10:08;;;;;;;2.20;2.20;;;16.50;99.90;;;;;;5113718;28;20462;-69
2021/05/25 12:12:38;;;;;;;2.60;2.60;;;16.70;99.90;;;;;;5113170;27;20495;-70
2021/05/25 12:15:21;;;;;;;2.40;2.40;;;16.60;99.90;;;;;;5113235;28;20461;-70
2021/05/25 12:17:51;;;;;;;2.30;2.10;;;16.70;99.90;;;;;;5112890;27;20567;-70
2021/05/25 12:20:19;;;;;;;2.53;2.33;;;17.00;99.90;;;;;;5113131;28;20462;-69
2021/05/25 12:22:47;;;;;;;1.97;1.97;;;17.20;99.90;;;;;;5112941;28;20453;-67
2021/05/25 12:25:19;;;;;;;2.37;2.27;;;17.30;99.90;;;;;;5113163;28;20466;-69
2021/05/25 12:27:46;;;;;;;2.00;1.90;;;17.30;99.90;;;;;;5113335;28;20465;-68
2021/05/25 12:30:16;;;;;;;1.93;1.93;;;17.30;99.90;;;;;;5112820;28;20461;-68
2021/05/25 12:32:44;;;;;;;2.07;2.00;;;17.20;99.90;;;;;;5112247;28;20481;-69
2021/05/25 12:35:11;;;;;;;1.53;1.53;;;17.10;99.90;;;;;;5113437;28;20461;-71
2021/05/25 12:37:38;;;;;;;1.80;1.80;;;17.20;99.90;;;;;;5113283;28;20484;-70
2021/05/25 12:40:07;;;;;;;1.60;1.60;;;17.10;99.90;;;;;;5113321;28;20480;-70
2021/05/25 12:42:35;;;;;;;2.13;2.10;;;17.00;99.90;;;;;;5112931;28;20457;-70
2021/05/25 12:45:07;;;;;;;1.60;1.60;;;17.20;99.90;;;;;;5112613;28;20466;-70
2021/05/25 12:47:50;;;;;;;1.23;1.23;;;17.10;99.90;;;;;;5112368;28;20472;-72
2021/05/25 12:50:25;;;;;;;1.30;1.30;;;17.00;99.90;;;;;;5113109;28;20486;-72
2021/05/25 12:53:04;;;;;;;2.63;1.23;;;17.00;99.90;;;;;;5112935;28;20541;-69
2021/05/25 12:55:31;;;;;;;1.30;1.30;;;16.80;99.90;;;;;;5112717;28;20465;-69
2021/05/25 12:57:58;;;;;;;1.07;1.07;;;16.80;99.90;;;;;;5112755;28;20473;-69
2021/05/25 13:00:28;;;;;;;1.10;1.10;;;16.90;99.90;;;;;;5112316;28;20475;-68
2021/05/25 13:02:55;;;;;;;0.97;0.97;;;16.90;99.90;;;;;;5112723;28;20453;-69
2021/05/25 13:05:27;;;;;;;1.20;1.20;;;16.90;99.90;;;;;;5112299;28;20468;-69
2021/05/25 13:07:58;;;;;;;1.30;1.30;;;16.90;99.90;;;;;;5112848;28;20806;-69
2021/05/25 13:10:32;;;;;;;2.73;1.23;;;17.00;99.90;;;;;;5112210;28;20518;-68
2021/05/25 13:13:09;;;;;;;1.60;1.60;;;17.00;99.90;;;;;;5112888;28;20508;-69
2021/05/25 13:15:37;;;;;;;1.20;1.20;;;17.10;99.90;;;;;;5111427;28;20465;-69
2021/05/25 13:18:05;;;;;;;1.13;1.13;;;17.00;99.90;;;;;;5112488;28;20500;-69
2021/05/25 13:20:32;;;;;;;1.20;1.20;;;17.00;99.90;;;;;;5112374;28;20482;-69
2021/05/25 13:22:58;;;;;;;1.20;1.20;;;16.90;99.90;;;;;;5113863;28;20453;-69
2021/05/25 13:25:34;;;;;;;1.30;1.30;;;16.90;99.90;;;;;;5114433;28;20949;-69
2021/05/25 13:28:01;;;;;;;1.80;1.17;;;16.90;99.90;;;;;;5112804;28;20859;-70
2021/05/25 13:30:44;;;;;;;1.50;1.50;;;17.00;99.90;;;;;;5111643;28;20482;-69
2021/05/25 13:33:11;;;;;;;1.70;1.70;;;16.80;99.50;;;;;;5112180;28;20453;-69
2021/05/25 13:35:38;;;;;;;1.20;1.20;;;16.70;99.90;;;;;;5112225;28;20457;-69
2021/05/25 13:38:06;;;;;;;1.73;1.50;;;16.40;99.90;;;;;;5112183;28;20466;-69
2021/05/25 13:40:34;;;;;;;1.33;1.33;;;15.90;99.90;;;;;;5111916;28;20477;-68
2021/05/25 13:43:01;;;;;;;1.00;1.00;;;15.50;99.90;;;;;;5111910;28;21002;-69
2021/05/25 13:45:27;;;;;;;1.10;1.10;;;15.20;99.90;;;;;;5111560;28;20524;-68
2021/05/25 13:47:54;;;;;;;1.20;1.10;;;15.00;99.90;;;;;;5111785;28;20458;-68
2021/05/25 13:50:25;;;;;;;0.90;0.90;;;14.80;99.90;;;;;;5112345;28;20545;-68
2021/05/25 13:52:54;;;;;;;0.93;0.80;;;14.70;99.90;;;;;;5116620;28;20486;-67
2021/05/25 13:55:23;;;;;;;0.87;0.87;;;14.70;99.90;;;;;;5114731;28;20517;-67
2021/05/25 13:57:49;;;;;;;0.97;0.97;;;14.60;99.90;;;;;;5113252;28;20546;-67
2021/05/25 14:00:24;;;;;;;1.00;1.00;;;14.60;99.90;;;;;;5120077;27;20509;-68
2021/05/25 14:02:50;;;;;;;1.37;1.37;;;14.50;99.90;;;;;;5116330;28;20467;-68
2021/05/25 14:05:17;;;;;;;1.13;1.13;;;14.30;99.90;;;;;;5115911;28;20457;-68
2021/05/25 14:07:46;;;;;;;1.23;1.23;;;14.10;99.90;;;;;;5115935;28;20457;-67
2021/05/25 14:10:13;;;;;;;1.33;1.33;;;13.90;99.90;;;;;;5115940;28;20845;-67
2021/05/25 14:12:39;;;;;;;2.08;1.15;;;13.80;99.90;;;;;;5115303;28;20489;-67
2021/05/25 14:15:06;;;;;;;1.00;1.00;;;13.60;99.90;;;;;;5115026;28;20555;-67
2021/05/25 14:17:32;;;;;;;1.02;1.02;;;13.60;99.90;;;;;;5114874;27;20363;-68
2021/05/25 14:19:59;;;;;;;1.20;1.20;;;13.60;99.90;;;;;;5115556;28;20204;-67
2021/05/25 14:22:25;;;;;;;1.48;1.40;;;13.60;99.90;;;;;;5115148;28;20220;-67
2021/05/25 14:24:52;;;;;;;1.58;1.00;;;13.80;99.90;;;;;;5115499;28;20356;-67
2021/05/25 14:27:19;;;;;;;1.42;1.42;;;14.00;99.90;;;;;;5115054;28;20689;-67
2021/05/25 14:29:46;;;;;;;1.73;1.70;;;14.20;99.90;;;;;;5115069;28;20208;-68
2021/05/25 14:32:13;;;;;;;1.30;1.30;;;14.40;99.90;;;;;;5113963;28;20485;-68
2021/05/25 14:34:40;;;;;;;1.37;1.37;;;14.60;99.90;;;;;;5115004;28;20214;-69
2021/05/25 14:37:07;;;;;;;1.63;1.63;;;14.70;99.90;;;;;;5115264;28;20457;-69
2021/05/25 14:39:33;;;;;;;1.60;1.60;;;14.90;99.90;;;;;;5115037;28;20922;-69
2021/05/25 14:42:00;;;;;;;1.43;1.43;;;15.10;99.90;;;;;;5114915;28;20934;-69
2021/05/25 14:44:26;;;;;;;1.90;1.80;;;15.30;99.90;;;;;;5114328;28;20458;-69
2021/05/25 14:46:56;;;;;;;1.80;1.80;;;15.40;99.90;;;;;;5114788;28;20457;-69
2021/05/25 14:49:23;;;;;;;1.47;1.47;;;15.50;99.90;;;;;;5115209;28;20457;-69
2021/05/25 14:51:49;;;;;;;1.83;1.83;;;15.50;99.90;;;;;;5115127;27;20550;-70
2021/05/25 14:54:16;;;;;;;1.60;1.50;;;15.20;99.90;;;;;;5115594;28;20465;-69
2021/05/25 14:56:44;;;;;;;2.10;2.10;;;15.00;99.90;;;;;;5116636;27;20470;-69
2021/05/25 14:59:14;;;;;;;2.30;2.30;;;14.90;99.90;;;;;;5115116;28;20483;-68
2021/05/25 15:01:49;;;;;;;2.10;2.10;;;14.80;99.90;;;;;;5115068;28;20509;-69
2021/05/25 15:04:19;;;;;;;1.93;1.93;;;14.70;99.90;;;;;;5116190;28;20465;-69
2021/05/25 15:06:50;;;;;;;1.93;1.93;;;14.70;99.90;;;;;;5115938;28;20469;-69
2021/05/25 15:09:19;;;;;;;2.30;2.20;;;14.60;99.90;;;;;;5115038;28;20506;-69
2021/05/25 15:11:45;;;;;;;2.77;2.57;;;14.60;99.90;;;;;;5135783;28;20488;-70
2021/05/25 15:14:12;;;;;;;2.30;2.20;;;14.60;99.90;;;;;;5135960;28;20466;-69
2021/05/25 15:16:38;;;;;;;3.90;2.57;;;14.50;99.90;;;;;;5120794;28;20492;-69
2021/05/25 15:19:05;;;;;;;2.67;2.67;;;14.30;99.90;;;;;;5114746;28;20479;-69
2021/05/25 15:21:33;;;;;;;2.20;2.20;;;14.20;99.90;;;;;;5114174;28;20232;-69
2021/05/25 15:23:59;;;;;;;2.33;2.33;;;14.30;99.90;;;;;;5114180;28;20465;-70
2021/05/25 15:26:25;;;;;;;2.70;2.60;;;14.30;99.90;;;;;;5114323;28;20460;-70
2021/05/25 15:28:51;;;;;;;2.00;2.00;;;14.30;99.90;;;;;;5114487;28;20460;-69
2021/05/25 15:31:18;;;;;;;2.67;2.58;;;14.30;99.90;;;;;;5113070;28;20585;-69
2021/05/25 15:33:45;;;;;;;2.23;2.23;;;14.30;99.90;;;;;;5113995;28;20216;-70
2021/05/25 15:36:11;;;;;;;3.20;2.90;;;14.40;99.90;;;;;;5114261;28;20464;-69
2021/05/25 15:38:39;;;;;;;2.60;2.50;;;14.40;99.90;;;;;;5114409;28;20889;-69
2021/05/25 15:41:05;;;;;;;3.57;3.37;;;14.30;99.90;;;;;;5113783;28;20507;-69
2021/05/25 15:43:31;;;;;;;5.43;3.75;;;14.20;99.90;;;;;;5114187;28;20518;-70
2021/05/25 15:45:58;;;;;;;3.93;3.57;;;14.20;99.90;;;;;;5112849;28;20620;-69
2021/05/25 15:48:25;;;;;;;3.20;3.10;;;14.20;99.90;;;;;;5113918;28;20464;-69
2021/05/25 15:50:52;;;;;;;3.43;3.30;;;14.30;99.90;;;;;;5113557;28;20710;-69
2021/05/25 15:53:23;;;;;;;3.97;3.13;;;14.30;99.90;;;;;;5113657;28;20793;-69
2021/05/25 15:55:50;;;;;;;2.85;2.85;;;14.30;99.90;;;;;;5113672;28;20552;-69
2021/05/25 15:58:16;;;;;;;3.20;3.20;;;14.20;99.90;;;;;;5113173;28;20208;-68
2021/05/25 16:00:43;;;;;;;3.03;2.90;;;14.30;99.90;;;;;;5112225;28;20234;-69
2021/05/25 16:03:11;;;;;;;2.90;2.80;;;14.20;99.90;;;;;;5113100;28;20240;-69
2021/05/25 16:05:38;;;;;;;3.03;2.92;;;14.10;99.90;;;;;;5113500;28;20246;-69
2021/05/25 16:08:05;;;;;;;2.95;2.83;;;14.10;99.90;;;;;;5113416;28;20207;-68
2021/05/25 16:10:32;;;;;;;2.97;2.83;;;14.10;99.90;;;;;;5112845;27;20219;-69
2021/05/25 16:12:59;;;;;;;3.28;3.17;;;14.10;99.90;;;;;;5113426;28;20334;-70
2021/05/25 16:15:25;;;;;;;2.70;2.70;;;14.00;99.90;;;;;;5113031;28;20590;-70
2021/05/25 16:17:52;;;;;;;2.13;2.13;;;13.90;99.90;;;;;;5113952;28;20575;-69
2021/05/25 16:20:20;;;;;;;2.80;1.92;;;13.80;99.90;;;;;;5113926;28;20219;-70
2021/05/25 16:22:49;;;;;;;1.90;1.88;;;13.60;99.90;;;;;;5114742;28;20210;-71
2021/05/25 16:25:16;;;;;;;2.22;2.13;;;13.50;99.90;;;;;;5114036;28;20207;-70
2021/05/25 16:27:43;;;;;;;2.33;2.17;;;13.40;99.90;;;;;;5113255;28;20203;-70
2021/05/25 16:30:10;;;;;;;1.73;1.40;;;13.40;99.90;;;;;;5112564;28;20211;-69
2021/05/25 16:32:36;;;;;;;1.55;1.55;;;13.30;99.90;;;;;;5112358;28;20224;-68
2021/05/25 16:35:03;;;;;;;1.80;1.70;;;13.10;99.90;;;;;;5113087;28;20211;-68
2021/05/25 16:37:29;;;;;;;1.80;1.73;;;13.00;99.90;;;;;;5112776;28;20579;-68
2021/05/25 16:39:56;;;;;;;1.90;1.90;;;12.90;99.90;;;;;;5113159;28;20207;-68
2021/05/25 16:42:23;;;;;;;1.50;1.50;;;12.80;99.90;;;;;;5112638;28;20219;-68
2021/05/25 16:44:49;;;;;;;1.98;1.85;;;12.70;99.90;;;;;;5112017;28;20214;-68
2021/05/25 16:47:15;;;;;;;1.83;1.73;;;12.60;99.90;;;;;;5112347;28;20654;-69
2021/05/25 16:49:41;;;;;;;2.50;2.40;;;12.60;99.90;;;;;;5112896;28;20203;-68
2021/05/25 16:52:08;;;;;;;1.50;1.50;;;12.60;99.90;;;;;;5112391;28;20234;-68
2021/05/25 16:54:34;;;;;;;1.30;1.30;;;12.70;99.90;;;;;;5112633;28;20333;-68
2021/05/25 16:57:01;;;;;;;1.20;1.20;;;12.70;99.90;;;;;;5112612;28;20327;-69
2021/05/25 16:59:27;;;;;;;2.45;2.15;;;12.70;99.90;;;;;;5111868;28;20222;-68